sensor_id;sensor_type;location;lat;lon;timestamp;P1;durP1;ratioP1;P2;durP2;ratioP2
48516;SDS011;34310;51.904;4.256;2023-08-31T00:00:19;2.55;;;0.70;;
48516;SDS011;34310;51.904;4.256;2023-08-31T00:02:46;1.15;;;0.90;;
48516;SDS011;34310;51.904;4.256;2023-08-31T00:05:12;1.67;;;0.70;;
48516;SDS011;34310;51.904;4.256;2023-08-31T00:07:39;0.98;;;0.60;;
48516;SDS011;34310;51.904;4.256;2023-08-31T00:10:05;2.10;;;0.90;;
48516;SDS011;34310;51.904;4.256;2023-08-31T00:12:32;1.30;;;0.70;;
48516;SDS011;34310;51.904;4.256;2023-08-31T00:14:58;0.85;;;0.60;;
48516;SDS011;34310;51.904;4.256;2023-08-31T00:17:25;0.90;;;0.70;;
48516;SDS011;34310;51.904;4.256;2023-08-31T00:19:51;1.40;;;0.70;;
48516;SDS011;34310;51.904;4.256;2023-08-31T00:22:18;1.83;;;0.70;;
48516;SDS011;34310;51.904;4.256;2023-08-31T00:24:44;1.45;;;0.68;;
48516;SDS011;34310;51.904;4.256;2023-08-31T00:27:11;1.35;;;0.70;;
48516;SDS011;34310;51.904;4.256;2023-08-31T00:29:37;1.25;;;0.60;;
48516;SDS011;34310;51.904;4.256;2023-08-31T00:32:04;2.65;;;0.70;;
48516;SDS011;34310;51.904;4.256;2023-08-31T00:34:31;1.45;;;0.70;;
48516;SDS011;34310;51.904;4.256;2023-08-31T00:36:57;1.77;;;0.70;;
48516;SDS011;34310;51.904;4.256;2023-08-31T00:39:24;1.55;;;0.70;;
48516;SDS011;34310;51.904;4.256;2023-08-31T00:41:52;1.65;;;0.60;;
48516;SDS011;34310;51.904;4.256;2023-08-31T00:44:18;1.90;;;0.80;;
48516;SDS011;34310;51.904;4.256;2023-08-31T00:46:45;4.30;;;0.80;;
48516;SDS011;34310;51.904;4.256;2023-08-31T00:49:12;3.22;;;0.90;;
48516;SDS011;34310;51.904;4.256;2023-08-31T00:51:38;1.15;;;0.70;;
48516;SDS011;34310;51.904;4.256;2023-08-31T00:54:05;1.33;;;0.90;;
48516;SDS011;34310;51.904;4.256;2023-08-31T00:56:31;1.40;;;0.63;;
48516;SDS011;34310;51.904;4.256;2023-08-31T00:58:58;1.35;;;0.70;;
48516;SDS011;34310;51.904;4.256;2023-08-31T01:04:07;2.30;;;0.77;;
48516;SDS011;34310;51.904;4.256;2023-08-31T01:07:31;2.38;;;0.80;;
48516;SDS011;34310;51.904;4.256;2023-08-31T01:10:18;1.38;;;0.90;;
48516;SDS011;34310;51.904;4.256;2023-08-31T01:12:54;2.67;;;0.77;;
48516;SDS011;34310;51.904;4.256;2023-08-31T01:15:36;1.40;;;0.75;;
48516;SDS011;34310;51.904;4.256;2023-08-31T01:18:05;1.45;;;0.63;;
48516;SDS011;34310;51.904;4.256;2023-08-31T01:20:38;1.30;;;0.80;;
48516;SDS011;34310;51.904;4.256;2023-08-31T01:23:13;2.17;;;0.55;;
48516;SDS011;34310;51.904;4.256;2023-08-31T01:25:45;1.92;;;0.75;;
48516;SDS011;34310;51.904;4.256;2023-08-31T01:28:12;2.83;;;0.82;;
48516;SDS011;34310;51.904;4.256;2023-08-31T01:30:39;2.40;;;0.65;;
48516;SDS011;34310;51.904;4.256;2023-08-31T01:33:06;2.53;;;0.70;;
48516;SDS011;34310;51.904;4.256;2023-08-31T01:35:35;2.13;;;0.68;;
48516;SDS011;34310;51.904;4.256;2023-08-31T01:38:09;1.42;;;0.88;;
48516;SDS011;34310;51.904;4.256;2023-08-31T01:41:20;1.48;;;0.70;;
48516;SDS011;34310;51.904;4.256;2023-08-31T01:43:31;2.63;;;0.70;;
48516;SDS011;34310;51.904;4.256;2023-08-31T01:45:59;2.70;;;0.80;;
48516;SDS011;34310;51.904;4.256;2023-08-31T01:48:26;2.45;;;0.85;;
48516;SDS011;34310;51.904;4.256;2023-08-31T01:50:53;1.88;;;0.80;;
48516;SDS011;34310;51.904;4.256;2023-08-31T01:53:20;2.22;;;0.90;;
48516;SDS011;34310;51.904;4.256;2023-08-31T01:55:46;1.23;;;0.70;;
48516;SDS011;34310;51.904;4.256;2023-08-31T01:58:12;1.65;;;0.60;;
48516;SDS011;34310;51.904;4.256;2023-08-31T02:00:39;1.25;;;0.60;;
48516;SDS011;34310;51.904;4.256;2023-08-31T02:03:05;1.15;;;0.68;;
48516;SDS011;34310;51.904;4.256;2023-08-31T02:05:32;2.47;;;0.80;;
48516;SDS011;34310;51.904;4.256;2023-08-31T02:07:59;0.82;;;0.50;;
48516;SDS011;34310;51.904;4.256;2023-08-31T02:10:25;1.65;;;0.70;;
48516;SDS011;34310;51.904;4.256;2023-08-31T02:12:52;2.17;;;0.77;;
48516;SDS011;34310;51.904;4.256;2023-08-31T02:15:18;1.00;;;0.70;;
48516;SDS011;34310;51.904;4.256;2023-08-31T02:17:45;0.77;;;0.60;;
48516;SDS011;34310;51.904;4.256;2023-08-31T02:20:11;2.22;;;0.80;;
48516;SDS011;34310;51.904;4.256;2023-08-31T02:22:38;3.72;;;0.80;;
48516;SDS011;34310;51.904;4.256;2023-08-31T02:25:04;2.13;;;0.77;;
48516;SDS011;34310;51.904;4.256;2023-08-31T02:27:31;1.27;;;0.80;;
48516;SDS011;34310;51.904;4.256;2023-08-31T02:29:58;0.90;;;0.60;;
48516;SDS011;34310;51.904;4.256;2023-08-31T02:32:24;1.33;;;0.93;;
48516;SDS011;34310;51.904;4.256;2023-08-31T02:34:51;2.20;;;0.80;;
48516;SDS011;34310;51.904;4.256;2023-08-31T02:37:17;1.77;;;0.70;;
48516;SDS011;34310;51.904;4.256;2023-08-31T02:39:44;1.33;;;0.70;;
48516;SDS011;34310;51.904;4.256;2023-08-31T02:42:10;2.38;;;0.85;;
48516;SDS011;34310;51.904;4.256;2023-08-31T02:44:37;1.08;;;0.50;;
48516;SDS011;34310;51.904;4.256;2023-08-31T02:47:03;1.08;;;0.60;;
48516;SDS011;34310;51.904;4.256;2023-08-31T02:49:30;1.35;;;0.57;;
48516;SDS011;34310;51.904;4.256;2023-08-31T02:51:56;0.60;;;0.47;;
48516;SDS011;34310;51.904;4.256;2023-08-31T02:54:23;1.27;;;0.80;;
48516;SDS011;34310;51.904;4.256;2023-08-31T02:56:49;1.33;;;0.57;;
48516;SDS011;34310;51.904;4.256;2023-08-31T02:59:16;0.82;;;0.82;;
48516;SDS011;34310;51.904;4.256;2023-08-31T03:01:42;0.98;;;0.60;;
48516;SDS011;34310;51.904;4.256;2023-08-31T03:04:09;2.33;;;0.90;;
48516;SDS011;34310;51.904;4.256;2023-08-31T03:06:35;1.85;;;0.63;;
48516;SDS011;34310;51.904;4.256;2023-08-31T03:09:02;2.03;;;0.70;;
48516;SDS011;34310;51.904;4.256;2023-08-31T03:11:28;2.13;;;0.57;;
48516;SDS011;34310;51.904;4.256;2023-08-31T03:13:56;1.98;;;0.60;;
48516;SDS011;34310;51.904;4.256;2023-08-31T03:16:23;1.25;;;0.60;;
48516;SDS011;34310;51.904;4.256;2023-08-31T03:18:49;1.95;;;0.60;;
48516;SDS011;34310;51.904;4.256;2023-08-31T03:21:16;1.00;;;0.60;;
48516;SDS011;34310;51.904;4.256;2023-08-31T03:23:42;1.02;;;0.50;;
48516;SDS011;34310;51.904;4.256;2023-08-31T03:26:09;1.40;;;0.60;;
48516;SDS011;34310;51.904;4.256;2023-08-31T03:28:36;1.23;;;0.63;;
48516;SDS011;34310;51.904;4.256;2023-08-31T03:31:02;2.80;;;0.68;;
48516;SDS011;34310;51.904;4.256;2023-08-31T03:33:29;1.20;;;0.60;;
48516;SDS011;34310;51.904;4.256;2023-08-31T03:36:02;1.85;;;0.50;;
48516;SDS011;34310;51.904;4.256;2023-08-31T03:38:30;1.90;;;0.70;;
48516;SDS011;34310;51.904;4.256;2023-08-31T03:40:57;1.83;;;0.50;;
48516;SDS011;34310;51.904;4.256;2023-08-31T03:43:24;0.73;;;0.60;;
48516;SDS011;34310;51.904;4.256;2023-08-31T03:45:53;1.17;;;0.60;;
48516;SDS011;34310;51.904;4.256;2023-08-31T03:48:21;1.27;;;0.68;;
48516;SDS011;34310;51.904;4.256;2023-08-31T03:50:49;0.70;;;0.60;;
48516;SDS011;34310;51.904;4.256;2023-08-31T03:53:16;1.50;;;0.50;;
48516;SDS011;34310;51.904;4.256;2023-08-31T03:55:43;0.75;;;0.60;;
48516;SDS011;34310;51.904;4.256;2023-08-31T03:58:09;1.95;;;0.60;;
48516;SDS011;34310;51.904;4.256;2023-08-31T04:00:36;1.15;;;0.60;;
48516;SDS011;34310;51.904;4.256;2023-08-31T04:03:03;1.38;;;0.50;;
48516;SDS011;34310;51.904;4.256;2023-08-31T04:05:34;1.55;;;0.50;;
48516;SDS011;34310;51.904;4.256;2023-08-31T04:08:01;0.93;;;0.60;;
48516;SDS011;34310;51.904;4.256;2023-08-31T04:10:28;2.10;;;0.50;;
48516;SDS011;34310;51.904;4.256;2023-08-31T04:12:55;1.58;;;0.60;;
48516;SDS011;34310;51.904;4.256;2023-08-31T04:15:21;0.90;;;0.60;;
48516;SDS011;34310;51.904;4.256;2023-08-31T04:17:48;1.83;;;0.50;;
48516;SDS011;34310;51.904;4.256;2023-08-31T04:20:15;0.70;;;0.60;;
48516;SDS011;34310;51.904;4.256;2023-08-31T04:22:41;1.67;;;0.57;;
48516;SDS011;34310;51.904;4.256;2023-08-31T04:25:08;2.22;;;0.70;;
48516;SDS011;34310;51.904;4.256;2023-08-31T04:27:34;0.85;;;0.50;;
48516;SDS011;34310;51.904;4.256;2023-08-31T04:30:01;0.65;;;0.55;;
48516;SDS011;34310;51.904;4.256;2023-08-31T04:32:28;1.10;;;0.90;;
48516;SDS011;34310;51.904;4.256;2023-08-31T04:34:55;2.25;;;0.73;;
48516;SDS011;34310;51.904;4.256;2023-08-31T04:37:22;1.02;;;0.70;;
48516;SDS011;34310;51.904;4.256;2023-08-31T04:39:49;0.95;;;0.50;;
48516;SDS011;34310;51.904;4.256;2023-08-31T04:42:15;3.22;;;0.73;;
48516;SDS011;34310;51.904;4.256;2023-08-31T04:44:42;3.38;;;0.70;;
48516;SDS011;34310;51.904;4.256;2023-08-31T04:47:09;1.30;;;0.77;;
48516;SDS011;34310;51.904;4.256;2023-08-31T04:49:35;1.02;;;0.80;;
48516;SDS011;34310;51.904;4.256;2023-08-31T04:52:01;4.55;;;0.80;;
48516;SDS011;34310;51.904;4.256;2023-08-31T04:54:28;2.28;;;1.00;;
48516;SDS011;34310;51.904;4.256;2023-08-31T04:56:55;2.08;;;1.35;;
48516;SDS011;34310;51.904;4.256;2023-08-31T04:59:21;2.72;;;1.00;;
48516;SDS011;34310;51.904;4.256;2023-08-31T05:01:48;2.90;;;1.27;;
48516;SDS011;34310;51.904;4.256;2023-08-31T05:04:14;1.92;;;1.17;;
48516;SDS011;34310;51.904;4.256;2023-08-31T05:06:41;1.85;;;1.17;;
48516;SDS011;34310;51.904;4.256;2023-08-31T05:09:07;2.05;;;1.10;;
48516;SDS011;34310;51.904;4.256;2023-08-31T05:11:34;1.88;;;1.17;;
48516;SDS011;34310;51.904;4.256;2023-08-31T05:14:00;2.58;;;1.15;;
48516;SDS011;34310;51.904;4.256;2023-08-31T05:16:26;2.38;;;1.20;;
48516;SDS011;34310;51.904;4.256;2023-08-31T05:18:53;2.58;;;1.20;;
48516;SDS011;34310;51.904;4.256;2023-08-31T05:21:20;2.38;;;1.40;;
48516;SDS011;34310;51.904;4.256;2023-08-31T05:23:46;1.50;;;1.38;;
48516;SDS011;34310;51.904;4.256;2023-08-31T05:26:13;2.80;;;1.42;;
48516;SDS011;34310;51.904;4.256;2023-08-31T05:28:39;2.35;;;1.40;;
48516;SDS011;34310;51.904;4.256;2023-08-31T05:31:06;2.55;;;1.38;;
48516;SDS011;34310;51.904;4.256;2023-08-31T05:33:32;3.63;;;1.60;;
48516;SDS011;34310;51.904;4.256;2023-08-31T05:36:00;2.40;;;1.80;;
48516;SDS011;34310;51.904;4.256;2023-08-31T05:38:27;4.53;;;1.40;;
48516;SDS011;34310;51.904;4.256;2023-08-31T05:40:53;2.90;;;1.70;;
48516;SDS011;34310;51.904;4.256;2023-08-31T05:43:20;1.70;;;1.40;;
48516;SDS011;34310;51.904;4.256;2023-08-31T05:45:46;2.08;;;1.30;;
48516;SDS011;34310;51.904;4.256;2023-08-31T05:48:13;2.03;;;1.35;;
48516;SDS011;34310;51.904;4.256;2023-08-31T05:50:39;1.73;;;1.50;;
48516;SDS011;34310;51.904;4.256;2023-08-31T05:53:06;3.35;;;1.40;;
48516;SDS011;34310;51.904;4.256;2023-08-31T05:55:32;2.33;;;1.50;;
48516;SDS011;34310;51.904;4.256;2023-08-31T05:57:59;3.63;;;1.40;;
48516;SDS011;34310;51.904;4.256;2023-08-31T06:00:25;3.08;;;1.60;;
48516;SDS011;34310;51.904;4.256;2023-08-31T06:02:52;2.80;;;1.55;;
48516;SDS011;34310;51.904;4.256;2023-08-31T06:05:18;2.85;;;1.73;;
48516;SDS011;34310;51.904;4.256;2023-08-31T06:07:45;2.38;;;1.70;;
48516;SDS011;34310;51.904;4.256;2023-08-31T06:10:11;2.90;;;1.70;;
48516;SDS011;34310;51.904;4.256;2023-08-31T06:12:38;2.95;;;1.80;;
48516;SDS011;34310;51.904;4.256;2023-08-31T06:15:05;3.20;;;1.80;;
48516;SDS011;34310;51.904;4.256;2023-08-31T06:17:31;3.22;;;1.70;;
48516;SDS011;34310;51.904;4.256;2023-08-31T06:19:58;3.42;;;1.70;;
48516;SDS011;34310;51.904;4.256;2023-08-31T06:22:24;3.60;;;1.90;;
48516;SDS011;34310;51.904;4.256;2023-08-31T06:24:51;4.43;;;2.30;;
48516;SDS011;34310;51.904;4.256;2023-08-31T06:27:18;2.88;;;2.00;;
48516;SDS011;34310;51.904;4.256;2023-08-31T06:29:44;3.08;;;1.70;;
48516;SDS011;34310;51.904;4.256;2023-08-31T06:32:11;3.53;;;2.00;;
48516;SDS011;34310;51.904;4.256;2023-08-31T06:34:37;4.18;;;1.70;;
48516;SDS011;34310;51.904;4.256;2023-08-31T06:37:04;2.88;;;1.70;;
48516;SDS011;34310;51.904;4.256;2023-08-31T06:39:30;3.80;;;1.60;;
48516;SDS011;34310;51.904;4.256;2023-08-31T06:41:57;4.05;;;1.80;;
48516;SDS011;34310;51.904;4.256;2023-08-31T06:44:23;4.43;;;2.10;;
48516;SDS011;34310;51.904;4.256;2023-08-31T06:46:50;4.20;;;1.85;;
48516;SDS011;34310;51.904;4.256;2023-08-31T06:49:16;2.95;;;1.80;;
48516;SDS011;34310;51.904;4.256;2023-08-31T06:51:43;3.25;;;1.98;;
48516;SDS011;34310;51.904;4.256;2023-08-31T06:54:09;3.60;;;1.80;;
48516;SDS011;34310;51.904;4.256;2023-08-31T06:56:35;5.30;;;1.80;;
48516;SDS011;34310;51.904;4.256;2023-08-31T06:59:02;4.00;;;1.80;;
48516;SDS011;34310;51.904;4.256;2023-08-31T07:01:29;2.80;;;1.98;;
48516;SDS011;34310;51.904;4.256;2023-08-31T07:03:55;4.68;;;1.80;;
48516;SDS011;34310;51.904;4.256;2023-08-31T07:06:22;6.15;;;1.73;;
48516;SDS011;34310;51.904;4.256;2023-08-31T07:08:48;4.10;;;2.22;;
48516;SDS011;34310;51.904;4.256;2023-08-31T07:11:15;3.28;;;2.15;;
48516;SDS011;34310;51.904;4.256;2023-08-31T07:13:43;2.45;;;1.88;;
48516;SDS011;34310;51.904;4.256;2023-08-31T07:16:09;4.88;;;2.13;;
48516;SDS011;34310;51.904;4.256;2023-08-31T07:18:36;3.20;;;1.77;;
48516;SDS011;34310;51.904;4.256;2023-08-31T07:21:03;3.70;;;2.00;;
48516;SDS011;34310;51.904;4.256;2023-08-31T07:23:29;2.65;;;1.70;;
48516;SDS011;34310;51.904;4.256;2023-08-31T07:25:56;5.28;;;2.00;;
48516;SDS011;34310;51.904;4.256;2023-08-31T07:28:23;3.10;;;1.90;;
48516;SDS011;34310;51.904;4.256;2023-08-31T07:30:59;2.70;;;1.83;;
48516;SDS011;34310;51.904;4.256;2023-08-31T07:33:30;4.07;;;1.80;;
48516;SDS011;34310;51.904;4.256;2023-08-31T07:35:57;3.40;;;1.80;;
48516;SDS011;34310;51.904;4.256;2023-08-31T07:38:26;3.42;;;1.85;;
48516;SDS011;34310;51.904;4.256;2023-08-31T07:40:53;3.65;;;1.83;;
48516;SDS011;34310;51.904;4.256;2023-08-31T07:43:20;3.25;;;1.92;;
48516;SDS011;34310;51.904;4.256;2023-08-31T07:45:47;3.45;;;1.90;;
48516;SDS011;34310;51.904;4.256;2023-08-31T07:48:13;3.45;;;1.70;;
48516;SDS011;34310;51.904;4.256;2023-08-31T07:50:40;2.05;;;1.65;;
48516;SDS011;34310;51.904;4.256;2023-08-31T07:53:08;3.13;;;1.83;;
48516;SDS011;34310;51.904;4.256;2023-08-31T07:55:35;4.50;;;2.05;;
48516;SDS011;34310;51.904;4.256;2023-08-31T07:58:01;2.40;;;1.63;;
48516;SDS011;34310;51.904;4.256;2023-08-31T08:00:28;2.50;;;1.70;;
48516;SDS011;34310;51.904;4.256;2023-08-31T08:02:54;2.97;;;1.70;;
48516;SDS011;34310;51.904;4.256;2023-08-31T08:05:21;2.00;;;1.70;;
48516;SDS011;34310;51.904;4.256;2023-08-31T08:07:48;2.55;;;1.48;;
48516;SDS011;34310;51.904;4.256;2023-08-31T08:10:14;2.15;;;1.35;;
48516;SDS011;34310;51.904;4.256;2023-08-31T08:12:41;2.30;;;1.58;;
48516;SDS011;34310;51.904;4.256;2023-08-31T08:15:08;2.25;;;1.50;;
48516;SDS011;34310;51.904;4.256;2023-08-31T08:17:35;2.72;;;1.70;;
48516;SDS011;34310;51.904;4.256;2023-08-31T08:20:02;3.05;;;1.98;;
48516;SDS011;34310;51.904;4.256;2023-08-31T08:22:29;2.03;;;1.30;;
48516;SDS011;34310;51.904;4.256;2023-08-31T08:24:56;1.80;;;1.20;;
48516;SDS011;34310;51.904;4.256;2023-08-31T08:27:22;1.70;;;1.40;;
48516;SDS011;34310;51.904;4.256;2023-08-31T08:29:48;2.35;;;1.48;;
48516;SDS011;34310;51.904;4.256;2023-08-31T08:32:15;1.75;;;1.20;;
48516;SDS011;34310;51.904;4.256;2023-08-31T08:34:42;1.88;;;1.40;;
48516;SDS011;34310;51.904;4.256;2023-08-31T08:37:08;2.20;;;1.10;;
48516;SDS011;34310;51.904;4.256;2023-08-31T08:39:35;2.15;;;1.55;;
48516;SDS011;34310;51.904;4.256;2023-08-31T08:42:02;2.53;;;1.13;;
48516;SDS011;34310;51.904;4.256;2023-08-31T08:44:31;2.60;;;1.58;;
48516;SDS011;34310;51.904;4.256;2023-08-31T08:46:59;1.95;;;1.23;;
48516;SDS011;34310;51.904;4.256;2023-08-31T08:49:26;1.45;;;1.17;;
48516;SDS011;34310;51.904;4.256;2023-08-31T08:51:54;2.38;;;1.33;;
48516;SDS011;34310;51.904;4.256;2023-08-31T08:54:22;1.88;;;1.08;;
48516;SDS011;34310;51.904;4.256;2023-08-31T08:56:48;1.80;;;1.27;;
48516;SDS011;34310;51.904;4.256;2023-08-31T08:59:15;1.40;;;1.15;;
48516;SDS011;34310;51.904;4.256;2023-08-31T09:01:41;2.05;;;1.20;;
48516;SDS011;34310;51.904;4.256;2023-08-31T09:04:09;1.80;;;1.30;;
48516;SDS011;34310;51.904;4.256;2023-08-31T09:06:35;1.67;;;1.33;;
48516;SDS011;34310;51.904;4.256;2023-08-31T09:09:03;1.80;;;1.17;;
48516;SDS011;34310;51.904;4.256;2023-08-31T09:11:30;1.35;;;0.95;;
48516;SDS011;34310;51.904;4.256;2023-08-31T09:13:56;1.23;;;1.13;;
48516;SDS011;34310;51.904;4.256;2023-08-31T09:16:27;1.25;;;1.15;;
48516;SDS011;34310;51.904;4.256;2023-08-31T09:18:56;1.83;;;1.30;;
48516;SDS011;34310;51.904;4.256;2023-08-31T09:21:34;1.35;;;1.15;;
48516;SDS011;34310;51.904;4.256;2023-08-31T09:24:01;2.63;;;1.30;;
48516;SDS011;34310;51.904;4.256;2023-08-31T09:26:28;0.93;;;0.90;;
48516;SDS011;34310;51.904;4.256;2023-08-31T09:28:54;1.40;;;1.00;;
48516;SDS011;34310;51.904;4.256;2023-08-31T09:31:21;1.42;;;1.08;;
48516;SDS011;34310;51.904;4.256;2023-08-31T09:33:55;2.42;;;0.98;;
48516;SDS011;34310;51.904;4.256;2023-08-31T09:36:22;1.73;;;1.20;;
48516;SDS011;34310;51.904;4.256;2023-08-31T09:38:48;1.60;;;1.10;;
48516;SDS011;34310;51.904;4.256;2023-08-31T09:41:15;3.70;;;1.25;;
48516;SDS011;34310;51.904;4.256;2023-08-31T09:43:42;2.42;;;1.45;;
48516;SDS011;34310;51.904;4.256;2023-08-31T09:46:09;1.20;;;1.00;;
48516;SDS011;34310;51.904;4.256;2023-08-31T09:48:36;1.20;;;0.95;;
48516;SDS011;34310;51.904;4.256;2023-08-31T09:51:03;1.77;;;1.23;;
48516;SDS011;34310;51.904;4.256;2023-08-31T09:53:31;1.20;;;1.10;;
48516;SDS011;34310;51.904;4.256;2023-08-31T09:55:57;4.63;;;1.02;;
48516;SDS011;34310;51.904;4.256;2023-08-31T09:58:24;1.60;;;1.08;;
48516;SDS011;34310;51.904;4.256;2023-08-31T10:00:52;1.20;;;0.90;;
48516;SDS011;34310;51.904;4.256;2023-08-31T10:03:20;1.55;;;1.05;;
48516;SDS011;34310;51.904;4.256;2023-08-31T10:05:48;3.10;;;1.35;;
48516;SDS011;34310;51.904;4.256;2023-08-31T10:08:17;2.58;;;1.13;;
48516;SDS011;34310;51.904;4.256;2023-08-31T10:10:44;1.50;;;0.90;;
48516;SDS011;34310;51.904;4.256;2023-08-31T10:13:10;1.08;;;0.88;;
48516;SDS011;34310;51.904;4.256;2023-08-31T10:15:38;1.30;;;0.95;;
48516;SDS011;34310;51.904;4.256;2023-08-31T10:18:05;1.38;;;1.10;;
48516;SDS011;34310;51.904;4.256;2023-08-31T10:20:33;1.00;;;0.77;;
48516;SDS011;34310;51.904;4.256;2023-08-31T10:23:04;2.00;;;1.10;;
48516;SDS011;34310;51.904;4.256;2023-08-31T10:28:16;1.00;;;0.80;;
48516;SDS011;34310;51.904;4.256;2023-08-31T10:30:59;2.35;;;0.90;;
48516;SDS011;34310;51.904;4.256;2023-08-31T10:33:26;1.10;;;0.80;;
48516;SDS011;34310;51.904;4.256;2023-08-31T10:35:56;1.25;;;0.80;;
48516;SDS011;34310;51.904;4.256;2023-08-31T10:46:24;1.67;;;0.93;;
48516;SDS011;34310;51.904;4.256;2023-08-31T10:48:57;0.95;;;0.70;;
48516;SDS011;34310;51.904;4.256;2023-08-31T10:51:28;1.13;;;0.93;;
48516;SDS011;34310;51.904;4.256;2023-08-31T10:57:22;0.70;;;0.70;;
48516;SDS011;34310;51.904;4.256;2023-08-31T10:59:24;1.58;;;0.85;;
48516;SDS011;34310;51.904;4.256;2023-08-31T11:02:00;0.80;;;0.80;;
48516;SDS011;34310;51.904;4.256;2023-08-31T11:04:27;2.38;;;0.77;;
48516;SDS011;34310;51.904;4.256;2023-08-31T11:09:40;1.58;;;0.77;;
48516;SDS011;34310;51.904;4.256;2023-08-31T11:12:08;1.38;;;0.60;;
48516;SDS011;34310;51.904;4.256;2023-08-31T11:14:34;0.77;;;0.70;;
48516;SDS011;34310;51.904;4.256;2023-08-31T11:17:01;1.08;;;0.82;;
48516;SDS011;34310;51.904;4.256;2023-08-31T11:19:29;0.70;;;0.70;;
48516;SDS011;34310;51.904;4.256;2023-08-31T11:21:55;1.40;;;0.70;;
48516;SDS011;34310;51.904;4.256;2023-08-31T11:24:22;0.88;;;0.77;;
48516;SDS011;34310;51.904;4.256;2023-08-31T11:26:51;1.30;;;0.85;;
48516;SDS011;34310;51.904;4.256;2023-08-31T11:29:19;0.98;;;0.75;;
48516;SDS011;34310;51.904;4.256;2023-08-31T11:31:45;1.05;;;0.80;;
48516;SDS011;34310;51.904;4.256;2023-08-31T11:34:12;1.88;;;0.77;;
48516;SDS011;34310;51.904;4.256;2023-08-31T11:36:44;0.93;;;0.70;;
48516;SDS011;34310;51.904;4.256;2023-08-31T11:39:12;0.73;;;0.68;;
48516;SDS011;34310;51.904;4.256;2023-08-31T11:41:39;1.30;;;1.05;;
48516;SDS011;34310;51.904;4.256;2023-08-31T11:44:11;1.83;;;0.70;;
48516;SDS011;34310;51.904;4.256;2023-08-31T11:46:39;0.57;;;0.57;;
48516;SDS011;34310;51.904;4.256;2023-08-31T11:49:08;0.95;;;0.77;;
48516;SDS011;34310;51.904;4.256;2023-08-31T11:51:35;0.82;;;0.70;;
48516;SDS011;34310;51.904;4.256;2023-08-31T11:54:03;0.93;;;0.85;;
48516;SDS011;34310;51.904;4.256;2023-08-31T11:56:40;0.98;;;0.90;;
48516;SDS011;34310;51.904;4.256;2023-08-31T11:59:11;0.70;;;0.63;;
48516;SDS011;34310;51.904;4.256;2023-08-31T12:01:40;0.60;;;0.60;;
48516;SDS011;34310;51.904;4.256;2023-08-31T12:04:15;0.75;;;0.70;;
48516;SDS011;34310;51.904;4.256;2023-08-31T12:06:46;0.70;;;0.70;;
48516;SDS011;34310;51.904;4.256;2023-08-31T12:09:13;1.30;;;0.70;;
48516;SDS011;34310;51.904;4.256;2023-08-31T12:11:39;1.75;;;0.73;;
48516;SDS011;34310;51.904;4.256;2023-08-31T12:14:18;1.05;;;0.70;;
48516;SDS011;34310;51.904;4.256;2023-08-31T12:16:48;0.70;;;0.70;;
48516;SDS011;34310;51.904;4.256;2023-08-31T12:19:16;0.60;;;0.60;;
48516;SDS011;34310;51.904;4.256;2023-08-31T12:21:43;0.63;;;0.63;;
48516;SDS011;34310;51.904;4.256;2023-08-31T12:24:11;0.82;;;0.60;;
48516;SDS011;34310;51.904;4.256;2023-08-31T12:26:38;0.80;;;0.60;;
48516;SDS011;34310;51.904;4.256;2023-08-31T12:29:07;0.90;;;0.70;;
48516;SDS011;34310;51.904;4.256;2023-08-31T12:31:33;0.75;;;0.70;;
48516;SDS011;34310;51.904;4.256;2023-08-31T12:34:00;0.60;;;0.57;;
48516;SDS011;34310;51.904;4.256;2023-08-31T12:36:26;0.55;;;0.52;;
48516;SDS011;34310;51.904;4.256;2023-08-31T12:38:53;1.83;;;0.70;;
48516;SDS011;34310;51.904;4.256;2023-08-31T12:41:19;0.85;;;0.70;;
48516;SDS011;34310;51.904;4.256;2023-08-31T12:43:49;0.65;;;0.60;;
48516;SDS011;34310;51.904;4.256;2023-08-31T12:46:16;1.92;;;0.70;;
48516;SDS011;34310;51.904;4.256;2023-08-31T12:48:42;1.08;;;0.77;;
48516;SDS011;34310;51.904;4.256;2023-08-31T12:51:09;0.50;;;0.50;;
48516;SDS011;34310;51.904;4.256;2023-08-31T12:53:38;0.70;;;0.43;;
48516;SDS011;34310;51.904;4.256;2023-08-31T12:56:05;0.50;;;0.50;;
48516;SDS011;34310;51.904;4.256;2023-08-31T12:58:32;1.02;;;0.68;;
48516;SDS011;34310;51.904;4.256;2023-08-31T13:00:58;0.55;;;0.55;;
48516;SDS011;34310;51.904;4.256;2023-08-31T13:03:25;0.95;;;0.63;;
48516;SDS011;34310;51.904;4.256;2023-08-31T13:05:52;0.90;;;0.60;;
48516;SDS011;34310;51.904;4.256;2023-08-31T13:08:18;0.52;;;0.52;;
48516;SDS011;34310;51.904;4.256;2023-08-31T13:10:52;0.57;;;0.50;;
48516;SDS011;34310;51.904;4.256;2023-08-31T13:13:19;0.60;;;0.60;;
48516;SDS011;34310;51.904;4.256;2023-08-31T13:15:46;1.25;;;0.60;;
48516;SDS011;34310;51.904;4.256;2023-08-31T13:18:15;0.60;;;0.40;;
48516;SDS011;34310;51.904;4.256;2023-08-31T13:20:52;0.98;;;0.60;;
48516;SDS011;34310;51.904;4.256;2023-08-31T13:23:20;0.77;;;0.52;;
48516;SDS011;34310;51.904;4.256;2023-08-31T13:25:47;0.50;;;0.50;;
48516;SDS011;34310;51.904;4.256;2023-08-31T13:28:14;1.05;;;0.60;;
48516;SDS011;34310;51.904;4.256;2023-08-31T13:30:41;1.80;;;0.73;;
48516;SDS011;34310;51.904;4.256;2023-08-31T13:33:08;0.68;;;0.55;;
48516;SDS011;34310;51.904;4.256;2023-08-31T13:35:35;0.85;;;0.63;;
48516;SDS011;34310;51.904;4.256;2023-08-31T13:38:01;0.52;;;0.40;;
48516;SDS011;34310;51.904;4.256;2023-08-31T13:40:29;0.43;;;0.43;;
48516;SDS011;34310;51.904;4.256;2023-08-31T13:42:59;0.65;;;0.50;;
48516;SDS011;34310;51.904;4.256;2023-08-31T13:45:26;0.50;;;0.50;;
48516;SDS011;34310;51.904;4.256;2023-08-31T13:47:53;0.40;;;0.40;;
48516;SDS011;34310;51.904;4.256;2023-08-31T13:50:20;1.13;;;0.50;;
48516;SDS011;34310;51.904;4.256;2023-08-31T13:52:46;0.50;;;0.50;;
48516;SDS011;34310;51.904;4.256;2023-08-31T13:55:13;0.50;;;0.50;;
48516;SDS011;34310;51.904;4.256;2023-08-31T13:57:41;0.50;;;0.50;;
48516;SDS011;34310;51.904;4.256;2023-08-31T14:00:08;0.63;;;0.57;;
48516;SDS011;34310;51.904;4.256;2023-08-31T14:02:36;0.50;;;0.50;;
48516;SDS011;34310;51.904;4.256;2023-08-31T14:05:03;0.50;;;0.50;;
48516;SDS011;34310;51.904;4.256;2023-08-31T14:07:33;0.47;;;0.47;;
48516;SDS011;34310;51.904;4.256;2023-08-31T14:09:59;1.45;;;0.47;;
48516;SDS011;34310;51.904;4.256;2023-08-31T14:12:25;1.25;;;0.50;;
48516;SDS011;34310;51.904;4.256;2023-08-31T14:14:52;1.33;;;0.73;;
48516;SDS011;34310;51.904;4.256;2023-08-31T14:17:19;0.85;;;0.40;;
48516;SDS011;34310;51.904;4.256;2023-08-31T14:19:45;0.50;;;0.50;;
48516;SDS011;34310;51.904;4.256;2023-08-31T14:22:12;1.15;;;0.50;;
48516;SDS011;34310;51.904;4.256;2023-08-31T14:24:38;0.75;;;0.43;;
48516;SDS011;34310;51.904;4.256;2023-08-31T14:27:05;0.60;;;0.60;;
48516;SDS011;34310;51.904;4.256;2023-08-31T14:29:31;1.50;;;0.63;;
48516;SDS011;34310;51.904;4.256;2023-08-31T14:31:58;1.48;;;0.57;;
48516;SDS011;34310;51.904;4.256;2023-08-31T14:34:24;1.95;;;0.50;;
48516;SDS011;34310;51.904;4.256;2023-08-31T14:36:51;0.40;;;0.40;;
48516;SDS011;34310;51.904;4.256;2023-08-31T14:39:17;0.52;;;0.50;;
48516;SDS011;34310;51.904;4.256;2023-08-31T14:41:44;0.60;;;0.60;;
48516;SDS011;34310;51.904;4.256;2023-08-31T14:44:10;0.60;;;0.60;;
48516;SDS011;34310;51.904;4.256;2023-08-31T14:46:37;1.15;;;0.80;;
48516;SDS011;34310;51.904;4.256;2023-08-31T14:49:03;0.63;;;0.60;;
48516;SDS011;34310;51.904;4.256;2023-08-31T14:51:29;3.08;;;0.75;;
48516;SDS011;34310;51.904;4.256;2023-08-31T14:53:56;0.60;;;0.55;;
48516;SDS011;34310;51.904;4.256;2023-08-31T14:56:22;0.95;;;0.80;;
48516;SDS011;34310;51.904;4.256;2023-08-31T14:58:49;0.98;;;0.88;;
48516;SDS011;34310;51.904;4.256;2023-08-31T15:01:15;1.50;;;1.00;;
48516;SDS011;34310;51.904;4.256;2023-08-31T15:03:42;2.40;;;1.20;;
48516;SDS011;34310;51.904;4.256;2023-08-31T15:06:08;1.40;;;1.30;;
48516;SDS011;34310;51.904;4.256;2023-08-31T15:08:36;1.60;;;1.50;;